»·PEaware :: UAL5450 KPHX-KLAX

UAL5450 :: KPHX-KLAX

FLIGHT INFORMATION

Flight Status: Arrived
Operator:
United Airlines
More flights by this operator :: More flights under this callsign
Pilot: Saso K. (7898)
Aircraft: BOEING 737-300
(B733)
More flights by this aircraft type
Origin: KPHX Phoenix Sky Harbor Intl
United States
Destination: KLAX Los Angeles Intl
United States
More flights between these airports :: More routes between these airports
Route: +IZZZO6 MESSI PKE TNP SEAVU2
File this flight plan on PilotEdge
Remarks: PBN / A1L1B1C1D1O1S2 DOF / 170601 REG / N372SB EET / KZLA0017 OPR / UAL RMK / TCAS SIMBRIEF
Altitude:
(Current/Filed)
34,000ft
Speed:
(Current/Filed)
430kts
Departed: 01-Jun-17 04:26 PM
Arrived: 01-Jun-17 05:25 PM
Distance/Time
Traveled:
320nm/0:59
Distance/Time
To Go:
Arrived

Flight Plot

Page will automatically refresh every two minutes.

Flight plan parsing failed; only flown route is shown


Map Options




Map Legend


Flown Route
Filed Route
Departure Airport
Arrival Airport
Navaid (VOR, NDB)
Fix

Horizontal Profiles

Position Reports

Time Latitude Longitude Heading Altitude Ground
Speed
01-Jun-17 15:59 33.436888 -111.998800 270 1129ft 0kts
01-Jun-17 16:00 33.436888 -111.998800 270 1129ft 0kts
01-Jun-17 16:01 33.436888 -111.998800 270 1129ft 0kts
01-Jun-17 16:02 33.436888 -111.998800 270 1129ft 0kts
01-Jun-17 16:03 33.436888 -111.998800 270 1129ft 0kts
01-Jun-17 16:04 33.436888 -111.998800 270 1129ft 0kts
01-Jun-17 16:05 33.436888 -111.998800 270 1129ft 0kts
01-Jun-17 16:06 33.436888 -111.998800 270 1129ft 0kts
01-Jun-17 16:07 33.436888 -111.998800 270 1129ft 0kts
01-Jun-17 16:08 33.436888 -111.998800 270 1129ft 0kts
01-Jun-17 16:09 33.436888 -111.998800 270 1129ft 0kts
01-Jun-17 16:10 33.436888 -111.998800 270 1129ft 0kts
01-Jun-17 16:11 33.436888 -111.998800 270 1129ft 0kts
01-Jun-17 16:12 33.436888 -111.998800 270 1129ft 0kts
01-Jun-17 16:13 33.436888 -111.998800 270 1129ft 0kts
01-Jun-17 16:14 33.436888 -111.998800 270 1129ft 0kts
01-Jun-17 16:15 33.436888 -111.998800 270 1129ft 0kts
01-Jun-17 16:16 33.436888 -111.998800 270 1129ft 0kts
01-Jun-17 16:17 33.436888 -111.998800 270 1129ft 0kts
01-Jun-17 16:18 33.436888 -111.998800 270 1129ft 0kts
01-Jun-17 16:19 33.436887 -111.998186 270 1129ft 2kts
01-Jun-17 16:20 33.437230 -111.998281 13 1130ft 2kts
01-Jun-17 16:21 33.437259 -111.998270 16 1130ft 0kts
01-Jun-17 16:22 33.437280 -111.998264 15 1130ft 1kts
01-Jun-17 16:23 33.438388 -111.998278 357 1132ft 5kts
01-Jun-17 16:24 33.439731 -111.996616 89 1135ft 11kts
01-Jun-17 16:25 33.439724 -111.991737 86 1135ft 11kts
01-Jun-17 16:26 33.440752 -111.991483 296 1137ft 10kts
01-Jun-17 16:27 33.440825 -111.992138 270 1136ft 0kts
01-Jun-17 16:28 33.440698 -112.020795 266 1433ft 163kts
01-Jun-17 16:29 33.440645 -112.076276 264 3804ft 173kts
01-Jun-17 16:30 33.440046 -112.127104 266 5254ft 221kts
01-Jun-17 16:31 33.442846 -112.227304 269 7737ft 291kts
01-Jun-17 16:32 33.444994 -112.323490 269 10387ft 316kts
01-Jun-17 16:33 33.447356 -112.438372 269 12434ft 369kts
01-Jun-17 16:34 33.449701 -112.561704 270 15290ft 388kts
01-Jun-17 16:35 33.451107 -112.670306 269 17481ft 405kts
01-Jun-17 16:36 33.454742 -112.804714 283 20033ft 422kts
01-Jun-17 16:37 33.506092 -112.952374 290 23825ft 410kts
01-Jun-17 16:38 33.550226 -113.078397 289 26112ft 417kts
01-Jun-17 16:39 33.587133 -113.184214 290 28395ft 410kts
01-Jun-17 16:40 33.629222 -113.305352 292 31298ft 393kts
01-Jun-17 16:41 33.670741 -113.425303 293 33347ft 390kts
01-Jun-17 16:42 33.712284 -113.545768 294 33831ft 393kts
01-Jun-17 16:43 33.751091 -113.658731 293 33807ft 392kts
01-Jun-17 16:44 33.791628 -113.777423 293 33829ft 392kts
01-Jun-17 16:45 33.832366 -113.896876 293 33825ft 392kts
01-Jun-17 16:46 33.874131 -114.017176 294 33822ft 392kts
01-Jun-17 16:47 33.915668 -114.137098 294 33824ft 392kts
01-Jun-17 16:48 33.956757 -114.256161 294 33825ft 392kts
01-Jun-17 16:49 33.998004 -114.376135 294 33825ft 392kts
01-Jun-17 16:50 34.039163 -114.496302 294 33822ft 391kts
01-Jun-17 16:51 34.080389 -114.617127 294 33827ft 392kts
01-Jun-17 16:52 34.103611 -114.725615 273 33830ft 398kts
01-Jun-17 16:53 34.104429 -114.857537 274 33831ft 398kts
01-Jun-17 16:54 34.106047 -114.988953 274 33834ft 397kts
01-Jun-17 16:55 34.107535 -115.118480 273 33830ft 387kts
01-Jun-17 16:56 34.108865 -115.244616 273 33831ft 380kts
01-Jun-17 16:57 34.110044 -115.369427 273 33902ft 382kts
01-Jun-17 16:58 34.111035 -115.496077 273 33945ft 383kts
01-Jun-17 16:59 34.111764 -115.622380 273 33948ft 382kts
01-Jun-17 17:00 34.112146 -115.715285 272 33945ft 383kts
01-Jun-17 17:01 34.102036 -115.841990 262 33592ft 387kts
01-Jun-17 17:02 34.083317 -115.966891 262 32622ft 386kts
01-Jun-17 17:03 34.064687 -116.092446 261 31655ft 388kts
01-Jun-17 17:04 34.045629 -116.220005 261 30678ft 392kts
01-Jun-17 17:05 34.026353 -116.348078 260 29705ft 395kts
01-Jun-17 17:06 34.006726 -116.477718 260 27619ft 397kts
01-Jun-17 17:07 33.995812 -116.606259 262 25464ft 383kts
01-Jun-17 17:08 33.987136 -116.715386 261 23618ft 373kts
01-Jun-17 17:09 33.977160 -116.837239 261 21583ft 368kts
01-Jun-17 17:10 33.967536 -116.954774 261 19591ft 366kts
01-Jun-17 17:11 33.957646 -117.074309 261 17611ft 363kts
01-Jun-17 17:12 33.947596 -117.191990 261 16978ft 358kts
01-Jun-17 17:13 33.937586 -117.309248 261 16609ft 357kts
01-Jun-17 17:14 33.948832 -117.423370 292 15044ft 368kts
01-Jun-17 17:15 33.980264 -117.533737 280 13059ft 357kts
01-Jun-17 17:16 33.997887 -117.641554 281 11210ft 347kts
01-Jun-17 17:17 34.000971 -117.744487 262 10007ft 317kts
01-Jun-17 17:18 33.991722 -117.839301 262 9020ft 295kts
01-Jun-17 17:19 33.982865 -117.931767 262 7473ft 282kts
01-Jun-17 17:20 33.974380 -118.018475 262 6089ft 277kts
01-Jun-17 17:21 33.965929 -118.102828 263 4828ft 268kts
01-Jun-17 17:22 33.957720 -118.184118 263 3400ft 247kts
01-Jun-17 17:23 33.950629 -118.254228 262 2237ft 200kts
01-Jun-17 17:24 33.945113 -118.308747 260 1341ft 145kts
01-Jun-17 17:25 33.940504 -118.353030 259 653ft 134kts
01-Jun-17 17:26 33.936074 -118.395471 262 109ft 103kts
01-Jun-17 17:27 33.935900 -118.406275 284 124ft 0kts
01-Jun-17 17:28 33.935971 -118.406766 271 125ft 6kts
01-Jun-17 17:29 33.937983 -118.409134 353 125ft 12kts
01-Jun-17 17:30 33.939205 -118.404061 83 120ft 23kts
01-Jun-17 17:31 33.940385 -118.398250 358 112ft 13kts
01-Jun-17 17:32 33.942237 -118.397879 84 112ft 2kts
01-Jun-17 17:33 33.942244 -118.397801 84 112ft 0kts

Navigation Log

Ident Type
Flight plan parsing failed, navigation log unavailable